Davisburg, MI (48350)

16:33 EDT 28. Srpen 2016 (GMT -0400)
@ Trillium Hill | | Change Station

Výška 1210 ft 42.78 °N, 83.48 °W | Updated 10 seconds ago

Mostly Cloudy
Skoro zataženo
78.8 °F
Pocit jako 82 °F
S
0.0
Vítr proměnlivý Vítr od severní
Gusts 0.0 mil/h

Dnes
Vysoké -- | Nízké -- °F
--% Možnost srážek
Včera
Vysoké -- | Nízké -- °F
Precip. -- inčů
Tlak 30.16 inčů
Viditelnost 10.0 mílí
Zataženo Nemnoho 3200 ft
Skoro zataženo 20000 ft
Tepelný index 82 °F
Rosný bod 72 °F
Vlhkost 79%
Dešťové srážky 0.00 inčů
Sněhová pokrývka Není k dispozici
6:55 AM 8:14 PM
Ubývající srpek, 13% visible
METAR KPTK 281953Z 29006KT 10SM FEW032 BKN200 29/20 A3018 RMK AO2 SLP212 T02890200 $
Tlak 30.16 inčů
Viditelnost 10.0 mílí
Zataženo Nemnoho 3200 ft
Skoro zataženo 20000 ft
Tepelný index 82 °F
Rosný bod 72 °F
Vlhkost 79%
Dešťové srážky 0.00 inčů
Sněhová pokrývka Není k dispozici
6:55 AM 8:14 PM
Ubývající srpek, 13% visible
METAR KPTK 281953Z 29006KT 10SM FEW032 BKN200 29/20 A3018 RMK AO2 SLP212 T02890200 $

10-Day Weather Forecast

Almanac

Astronomie

Aug. 28, 2016 Východ Západ
Skutečný čas
Občanský soumrak
Námořní soumrak
Astronomický soumrak
Měsíc
Délka denního světla
Délka dne
Tomorrow will be .
, % of the Moon is Illuminated

Dnešní extrémy

State Highs State Lows

Community

WunderPhotos

Upload Photos

1,935,691 snímků staženo!

WunderBlog® & News

Nearby

Kvalita ovzduší

  Kvalita ovzduší Index kvality ovzduší Polutant
Not available.

Výška sněhu

Station Hloubka Nadmořská výška

Seizmická činnost

Město Distance Mag. Čas & datum
Minimální zobrazený rozsah je 2.5.

Pobřežní teplota vody

Lokalita Teplota

Stations

Poblíž povětrnostní stanice

Lokace stanice Tepl. Ochlazování větrem Rosný bod Vlhkost Vítr Precip. Výška Čas hlášení Typ
                   

Watches & Warnings

There are currently no watches in effect.